createdAt,value
2018-01-26T00:00:57.005Z,7.5
2018-01-26T00:01:58.036Z,7.4
2018-01-26T00:02:58.830Z,7.4
2018-01-26T00:03:59.557Z,7.4
2018-01-26T00:05:00.275Z,7.4
2018-01-26T00:06:01.007Z,7.3
2018-01-26T00:07:01.734Z,7.4
2018-01-26T00:08:02.468Z,7.4
2018-01-26T00:09:03.260Z,7.4
2018-01-26T00:10:04.288Z,7.4
2018-01-26T00:11:05.024Z,7.4
2018-01-26T00:12:05.799Z,7.3
2018-01-26T00:13:06.526Z,7.4
2018-01-26T00:14:07.237Z,7.4
2018-01-26T00:15:08.015Z,7.4
2018-01-26T00:16:08.740Z,7.4
2018-01-26T00:17:09.464Z,7.4
2018-01-26T00:18:10.195Z,7.3
2018-01-26T00:19:10.922Z,7.4
2018-01-26T00:20:11.706Z,7.3
2018-01-26T00:21:12.430Z,7.4
2018-01-26T00:22:13.145Z,7.4
2018-01-26T00:23:13.875Z,7.4
2018-01-26T00:24:14.599Z,7.4
2018-01-26T00:25:15.368Z,7.3
2018-01-26T00:26:16.114Z,7.4
2018-01-26T00:27:16.884Z,7.3
2018-01-26T00:28:17.609Z,7.4
2018-01-26T00:29:18.351Z,7.4
2018-01-26T00:30:19.120Z,7.4
2018-01-26T00:31:19.901Z,7.4
2018-01-26T00:32:20.635Z,7.4
2018-01-26T00:33:21.365Z,7.4
2018-01-26T00:34:22.105Z,7.4
2018-01-26T00:35:22.849Z,7.4
2018-01-26T00:36:23.624Z,7.4
2018-01-26T00:37:24.356Z,7.4
2018-01-26T00:38:25.076Z,7.5
2018-01-26T00:39:25.805Z,7.4
2018-01-26T00:40:26.536Z,7.4
2018-01-26T00:41:27.536Z,7.4
2018-01-26T00:42:28.277Z,7.4
2018-01-26T00:43:29.009Z,7.4
2018-01-26T00:44:29.739Z,7.4
2018-01-26T00:45:30.506Z,7.4
2018-01-26T00:46:31.227Z,7.5
2018-01-26T00:47:31.960Z,7.4
2018-01-26T00:48:32.727Z,7.4
2018-01-26T00:49:33.474Z,7.4
2018-01-26T00:50:34.257Z,7.4
2018-01-26T00:51:35.043Z,7.4
2018-01-26T00:52:35.777Z,7.4
2018-01-26T00:53:36.580Z,7.4
2018-01-26T00:54:37.316Z,7.4
2018-01-26T00:55:38.047Z,7.4
2018-01-26T00:56:38.766Z,7.4
2018-01-26T00:57:39.504Z,7.4
2018-01-26T00:58:40.294Z,7.4
2018-01-26T00:59:41.069Z,7.3
2018-01-26T01:00:41.795Z,7.3
2018-01-26T01:01:42.522Z,7.4
2018-01-26T01:02:43.254Z,7.4
2018-01-26T01:03:43.987Z,7.3
2018-01-26T01:04:44.715Z,7.4
2018-01-26T01:05:45.501Z,7.3
2018-01-26T01:06:46.256Z,7.3
2018-01-26T01:07:46.977Z,7.3
2018-01-26T01:08:47.829Z,7.4
2018-01-26T01:09:48.546Z,7.4
2018-01-26T01:10:49.268Z,7.3
2018-01-26T01:11:50.077Z,7.4
2018-01-26T01:12:50.857Z,7.4
2018-01-26T01:13:51.599Z,7.2
2018-01-26T01:14:52.329Z,7.3
2018-01-26T01:15:53.057Z,7.3
2018-01-26T01:16:53.873Z,7.4
2018-01-26T01:17:54.609Z,7.4
2018-01-26T01:18:55.326Z,7.3
2018-01-26T01:19:56.062Z,7.4
2018-01-26T01:20:56.775Z,7.3
2018-01-26T01:21:57.514Z,7.4
2018-01-26T01:22:58.279Z,7.4
2018-01-26T01:23:59.013Z,7.4
2018-01-26T01:24:59.747Z,7.4
2018-01-26T01:26:00.475Z,7.4
2018-01-26T01:27:01.205Z,7.5
2018-01-26T01:28:01.931Z,7.4
2018-01-26T01:29:03.010Z,7.3
2018-01-26T01:30:03.802Z,7.4
2018-01-26T01:31:04.606Z,7.5
2018-01-26T01:32:05.414Z,7.4
2018-01-26T01:33:06.188Z,7.5
2018-01-26T01:34:07.215Z,7.4
2018-01-26T01:35:07.961Z,7.3
2018-01-26T01:36:08.692Z,7.3
2018-01-26T01:37:09.477Z,7.2
2018-01-26T01:38:10.204Z,7.3
2018-01-26T01:39:10.938Z,7.3
2018-01-26T01:40:11.747Z,7.3
2018-01-26T01:41:12.462Z,7.4
2018-01-26T01:42:13.196Z,7.4
2018-01-26T01:43:13.996Z,7.4
2018-01-26T01:44:14.746Z,7.3
2018-01-26T01:45:15.476Z,7.3
2018-01-26T01:46:16.204Z,7.3
2018-01-26T01:47:16.936Z,7.3
2018-01-26T01:48:17.645Z,7.2
2018-01-26T01:49:18.369Z,7.2
2018-01-26T01:50:19.096Z,7.2
2018-01-26T01:51:19.836Z,7.2
2018-01-26T01:52:20.553Z,7.2
2018-01-26T01:53:21.287Z,7.3
2018-01-26T01:54:22.094Z,7.2
2018-01-26T01:55:22.817Z,7.3
2018-01-26T01:56:23.620Z,7.2
2018-01-26T01:57:24.357Z,7.2
2018-01-26T01:58:25.149Z,7.2
2018-01-26T01:59:25.878Z,7.2
2018-01-26T02:00:26.685Z,7.2
2018-01-26T02:01:27.767Z,7.2
2018-01-26T02:02:28.575Z,7.2
2018-01-26T02:03:29.306Z,7.3
2018-01-26T02:04:30.030Z,7.2
2018-01-26T02:05:30.809Z,7.2
2018-01-26T02:06:31.588Z,7.3
2018-01-26T02:07:32.327Z,7.2
2018-01-26T02:08:33.138Z,7.3
2018-01-26T02:09:33.923Z,7.3
2018-01-26T02:10:34.702Z,7.2
2018-01-26T02:11:35.427Z,7.2
2018-01-26T02:12:36.157Z,7.2
2018-01-26T02:13:37.260Z,7.2
2018-01-26T02:14:37.986Z,7.2
2018-01-26T02:15:38.705Z,7.3
2018-01-26T02:16:39.429Z,7.2
2018-01-26T02:17:40.157Z,7.2
2018-01-26T02:18:40.877Z,7.2
2018-01-26T02:19:41.701Z,7.1
2018-01-26T02:20:42.535Z,7.2
2018-01-26T02:21:43.255Z,7.2
2018-01-26T02:22:43.975Z,7.2
2018-01-26T02:23:44.707Z,7.2
2018-01-26T02:24:45.419Z,7.1
2018-01-26T02:25:46.139Z,7.2
2018-01-26T02:26:46.915Z,7.2
2018-01-26T02:27:47.639Z,7.1
2018-01-26T02:28:48.378Z,7.1
2018-01-26T02:29:49.095Z,7.1
2018-01-26T02:30:49.876Z,7.1
2018-01-26T02:31:50.597Z,7.1
2018-01-26T02:32:51.394Z,7.1
2018-01-26T02:33:52.118Z,7.1
2018-01-26T02:34:52.936Z,7.1
2018-01-26T02:35:53.673Z,7.1
2018-01-26T02:36:54.465Z,7.0
2018-01-26T02:37:55.185Z,7.0
2018-01-26T02:38:55.908Z,7.0
2018-01-26T02:39:56.645Z,7.0
2018-01-26T02:40:57.429Z,6.9
2018-01-26T02:41:58.226Z,7.0
2018-01-26T02:42:58.965Z,7.0
2018-01-26T02:43:59.691Z,6.9
2018-01-26T02:45:00.414Z,6.9
2018-01-26T02:46:01.145Z,6.9
2018-01-26T02:47:01.884Z,6.9
2018-01-26T02:48:02.595Z,6.9
2018-01-26T02:49:03.327Z,6.9
2018-01-26T02:50:04.046Z,6.9
2018-01-26T02:51:04.781Z,6.8
2018-01-26T02:52:05.620Z,6.8
2018-01-26T02:53:06.419Z,6.8
2018-01-26T02:54:07.209Z,6.8
2018-01-26T02:55:07.964Z,6.8
2018-01-26T02:56:08.703Z,6.8
2018-01-26T02:57:09.487Z,6.9
2018-01-26T02:58:10.284Z,6.8
2018-01-26T02:59:11.066Z,6.8
2018-01-26T03:00:11.859Z,6.7
2018-01-26T03:01:12.587Z,6.7
2018-01-26T03:02:13.574Z,6.6
2018-01-26T03:03:14.315Z,6.7
2018-01-26T03:04:15.036Z,6.6
2018-01-26T03:05:15.776Z,6.6
2018-01-26T03:06:16.466Z,6.5
2018-01-26T03:07:17.255Z,6.5
2018-01-26T03:08:17.986Z,6.4
2018-01-26T03:09:18.726Z,6.6
2018-01-26T03:10:19.447Z,6.5
2018-01-26T03:11:20.237Z,6.5
2018-01-26T03:12:21.095Z,6.5
2018-01-26T03:13:21.815Z,6.5
2018-01-26T03:14:22.535Z,6.3
2018-01-26T03:15:23.262Z,6.3
2018-01-26T03:16:24.057Z,6.3
2018-01-26T03:17:24.821Z,6.3
2018-01-26T03:18:25.504Z,6.3
2018-01-26T03:19:26.307Z,6.2
2018-01-26T03:20:27.124Z,6.2
2018-01-26T03:21:27.866Z,6.1
2018-01-26T03:22:28.609Z,6.2
2018-01-26T03:23:35.595Z,6.1
2018-01-26T03:24:36.384Z,6.1
2018-01-26T03:25:37.167Z,6.2
2018-01-26T03:26:37.898Z,6.1
2018-01-26T03:27:38.625Z,6.1
2018-01-26T03:28:39.393Z,6.0
2018-01-26T03:29:40.140Z,6.0
2018-01-26T03:30:40.920Z,5.9
2018-01-26T03:31:41.663Z,6.0
2018-01-26T03:32:42.383Z,5.9
2018-01-26T03:33:43.163Z,5.9
2018-01-26T03:34:43.883Z,5.9
2018-01-26T03:35:44.615Z,5.8
2018-01-26T03:36:45.349Z,5.8
2018-01-26T03:37:46.126Z,5.8
2018-01-26T03:38:46.950Z,5.7
2018-01-26T03:39:47.728Z,5.7
2018-01-26T03:40:48.554Z,5.7
2018-01-26T03:41:49.266Z,5.6
2018-01-26T03:42:49.997Z,5.7
2018-01-26T03:43:50.763Z,5.6
2018-01-26T03:44:51.486Z,5.6
2018-01-26T03:45:52.216Z,5.6
2018-01-26T03:46:52.927Z,5.6
2018-01-26T03:47:53.655Z,5.5
2018-01-26T03:48:54.395Z,5.6
2018-01-26T03:49:55.173Z,5.5
2018-01-26T03:50:55.905Z,5.7
2018-01-26T03:51:56.629Z,5.6
2018-01-26T03:52:57.420Z,5.6
2018-01-26T03:53:58.194Z,5.6
2018-01-26T03:54:58.926Z,5.6
2018-01-26T03:55:59.664Z,5.7
2018-01-26T03:57:00.445Z,5.7
2018-01-26T03:58:01.177Z,5.7
2018-01-26T03:59:01.851Z,5.7
2018-01-26T04:00:02.566Z,5.7
2018-01-26T04:01:03.292Z,5.7
2018-01-26T04:02:04.013Z,5.6
2018-01-26T04:03:05.307Z,5.8
2018-01-26T04:04:06.033Z,5.7
2018-01-26T04:05:06.835Z,5.7
2018-01-26T04:06:07.574Z,5.9
2018-01-26T04:07:08.315Z,5.9
2018-01-26T04:08:09.001Z,5.8
2018-01-26T04:09:10.128Z,5.9
2018-01-26T04:10:10.861Z,5.9
2018-01-26T04:11:11.572Z,5.9
2018-01-26T04:12:12.323Z,5.9
2018-01-26T04:13:13.090Z,6.0
2018-01-26T04:14:13.876Z,5.9
2018-01-26T04:15:14.692Z,5.9
2018-01-26T04:16:15.414Z,5.9
2018-01-26T04:17:16.215Z,6.1
2018-01-26T04:18:16.936Z,6.1
2018-01-26T04:19:17.668Z,6.2
2018-01-26T04:20:18.505Z,6.1
2018-01-26T04:21:19.302Z,6.1
2018-01-26T04:22:20.071Z,6.2
2018-01-26T04:23:20.847Z,6.1
2018-01-26T04:24:21.568Z,6.1
2018-01-26T04:25:22.296Z,6.2
2018-01-26T04:26:23.087Z,6.2
2018-01-26T04:27:23.806Z,6.2
2018-01-26T04:28:24.524Z,6.2
2018-01-26T04:29:25.237Z,6.3
2018-01-26T04:30:26.034Z,6.3
2018-01-26T04:31:26.827Z,6.3
2018-01-26T04:32:27.618Z,6.3
2018-01-26T04:33:28.379Z,6.3
2018-01-26T04:34:29.193Z,6.3
2018-01-26T04:35:29.927Z,6.3
2018-01-26T04:36:30.749Z,6.4
2018-01-26T04:37:31.555Z,6.4
2018-01-26T04:38:32.268Z,6.3
2018-01-26T04:39:32.996Z,6.3
2018-01-26T04:40:33.769Z,6.3
2018-01-26T04:41:34.531Z,6.3
2018-01-26T04:42:35.253Z,6.4
2018-01-26T04:43:35.978Z,6.5
2018-01-26T04:44:36.693Z,6.3
2018-01-26T04:45:37.418Z,6.3
2018-01-26T04:46:38.154Z,6.4
2018-01-26T04:47:39.127Z,6.4
2018-01-26T04:48:39.907Z,6.4
2018-01-26T04:49:40.624Z,6.4
2018-01-26T04:50:41.344Z,6.4
2018-01-26T04:51:42.076Z,6.4
2018-01-26T04:52:42.803Z,6.3
2018-01-26T04:53:43.539Z,6.3
2018-01-26T04:54:44.349Z,6.3
2018-01-26T04:55:45.134Z,6.3
2018-01-26T04:56:45.863Z,6.2
2018-01-26T04:57:46.611Z,6.3
2018-01-26T04:58:47.397Z,6.3
2018-01-26T04:59:48.113Z,6.3
2018-01-26T05:00:49.148Z,6.3
2018-01-26T05:01:49.904Z,6.3
2018-01-26T05:02:50.633Z,6.4
2018-01-26T05:03:51.366Z,6.3
2018-01-26T05:04:52.102Z,6.4
2018-01-26T05:05:52.826Z,6.4
2018-01-26T05:06:53.554Z,6.4
2018-01-26T05:07:54.595Z,6.3
2018-01-26T05:08:55.334Z,6.4
2018-01-26T05:09:56.069Z,6.4
2018-01-26T05:10:56.796Z,6.5
2018-01-26T05:11:57.524Z,6.4
2018-01-26T05:12:58.250Z,6.4
2018-01-26T05:13:59.038Z,6.4
2018-01-26T05:14:59.777Z,6.5
2018-01-26T05:16:00.539Z,6.5
2018-01-26T05:17:01.254Z,6.5
2018-01-26T05:18:02.044Z,6.5
2018-01-26T05:19:02.758Z,6.5
2018-01-26T05:20:03.561Z,6.5
2018-01-26T05:21:04.360Z,6.5
2018-01-26T05:22:05.078Z,6.5
2018-01-26T05:23:05.831Z,6.5
2018-01-26T05:24:06.574Z,6.5
2018-01-26T05:25:07.371Z,6.6
2018-01-26T05:26:08.104Z,6.5
2018-01-26T05:27:08.816Z,6.5
2018-01-26T05:28:09.547Z,6.5
2018-01-26T05:29:10.348Z,6.5
2018-01-26T05:30:11.134Z,6.5
2018-01-26T05:31:11.869Z,6.6
2018-01-26T05:32:12.642Z,6.6
2018-01-26T05:33:13.404Z,6.5
2018-01-26T05:34:14.130Z,6.6
2018-01-26T05:35:14.839Z,6.6
2018-01-26T05:36:15.570Z,6.5
2018-01-26T05:37:16.284Z,6.6
2018-01-26T05:38:17.054Z,6.7
2018-01-26T05:39:17.805Z,6.6
2018-01-26T05:40:18.554Z,6.6
2018-01-26T05:41:19.323Z,6.7
2018-01-26T05:42:20.068Z,6.7
2018-01-26T05:43:20.844Z,6.6
2018-01-26T05:44:21.588Z,6.7
2018-01-26T05:45:22.311Z,6.7
2018-01-26T05:46:23.050Z,6.6
2018-01-26T05:47:23.814Z,6.6
2018-01-26T05:48:24.781Z,6.7
2018-01-26T05:49:25.578Z,6.6
2018-01-26T05:50:26.387Z,6.7
2018-01-26T05:51:27.097Z,6.7
2018-01-26T05:52:27.864Z,6.7
2018-01-26T05:53:28.636Z,6.8
2018-01-26T05:54:29.428Z,6.8
2018-01-26T05:55:30.164Z,6.6
2018-01-26T05:56:30.900Z,6.7
2018-01-26T05:57:31.693Z,6.7
2018-01-26T05:58:32.418Z,6.8
2018-01-26T05:59:33.204Z,6.7
2018-01-26T06:00:33.946Z,6.7
2018-01-26T06:01:34.662Z,6.7
2018-01-26T06:02:35.394Z,6.7
2018-01-26T06:03:36.116Z,6.7
2018-01-26T06:04:36.905Z,6.7
2018-01-26T06:05:37.647Z,6.7
2018-01-26T06:06:38.493Z,6.7
2018-01-26T06:07:39.215Z,6.8
2018-01-26T06:08:40.026Z,6.8
2018-01-26T06:09:40.746Z,6.7
2018-01-26T06:10:41.477Z,6.7
2018-01-26T06:11:42.207Z,6.7
2018-01-26T06:12:42.995Z,6.8
2018-01-26T06:13:43.734Z,6.8
2018-01-26T06:14:44.478Z,6.6
2018-01-26T06:15:45.204Z,6.7
2018-01-26T06:16:45.924Z,6.7
2018-01-26T06:17:46.694Z,6.7
2018-01-26T06:18:47.427Z,6.8
2018-01-26T06:19:48.164Z,6.8
2018-01-26T06:20:48.905Z,6.8
2018-01-26T06:21:49.634Z,6.7
2018-01-26T06:22:50.383Z,6.7
2018-01-26T06:23:51.097Z,6.6
2018-01-26T06:24:51.914Z,6.6
2018-01-26T06:25:52.644Z,6.6
2018-01-26T06:26:53.364Z,6.6
2018-01-26T06:27:54.088Z,6.6
2018-01-26T06:28:54.897Z,6.5
2018-01-26T06:29:55.628Z,6.5
2018-01-26T06:30:56.410Z,6.5
2018-01-26T06:31:57.133Z,6.5
2018-01-26T06:32:57.856Z,6.5
2018-01-26T06:33:58.583Z,6.5
2018-01-26T06:34:59.319Z,6.5
2018-01-26T06:36:00.034Z,6.5
2018-01-26T06:37:00.755Z,6.5
2018-01-26T06:38:01.476Z,6.5
2018-01-26T06:39:02.208Z,6.5
2018-01-26T06:40:03.008Z,6.5
2018-01-26T06:41:03.735Z,6.6
2018-01-26T06:42:04.552Z,6.5
2018-01-26T06:43:05.326Z,6.7
2018-01-26T06:44:06.046Z,6.6
2018-01-26T06:45:06.828Z,6.8
2018-01-26T06:46:07.646Z,6.7
2018-01-26T06:47:08.367Z,6.6
2018-01-26T06:48:09.095Z,6.6
2018-01-26T06:49:09.813Z,6.7
2018-01-26T06:50:10.545Z,6.6
2018-01-26T06:51:11.282Z,6.6
2018-01-26T06:52:12.095Z,6.7
2018-01-26T06:53:12.926Z,6.7
2018-01-26T06:54:13.644Z,6.7
2018-01-26T06:55:14.374Z,6.8
2018-01-26T06:56:15.105Z,6.7
2018-01-26T06:57:15.908Z,6.8
2018-01-26T06:58:16.633Z,6.8
2018-01-26T06:59:17.380Z,6.8
2018-01-26T07:00:18.126Z,6.8
2018-01-26T07:01:18.868Z,6.8
2018-01-26T07:02:19.605Z,6.8
2018-01-26T07:03:20.328Z,6.8
2018-01-26T07:04:21.046Z,6.8
2018-01-26T07:05:21.816Z,6.8
2018-01-26T07:06:22.549Z,6.8
2018-01-26T07:07:23.353Z,6.8
2018-01-26T07:08:24.072Z,6.8
2018-01-26T07:09:24.782Z,6.8
2018-01-26T07:10:25.498Z,6.9
2018-01-26T07:11:26.241Z,6.9
2018-01-26T07:12:27.043Z,6.9
2018-01-26T07:13:27.860Z,6.8
2018-01-26T07:14:28.581Z,6.9
2018-01-26T07:15:29.365Z,6.9
2018-01-26T07:16:30.105Z,6.8
2018-01-26T07:17:30.850Z,6.8
2018-01-26T07:18:31.540Z,6.9
2018-01-26T07:19:32.261Z,6.8
2018-01-26T07:20:32.986Z,6.8
2018-01-26T07:21:33.703Z,6.8
2018-01-26T07:22:34.446Z,6.9
2018-01-26T07:23:35.184Z,6.8
2018-01-26T07:24:35.959Z,6.8
2018-01-26T07:25:36.746Z,6.8
2018-01-26T07:26:37.485Z,6.8
2018-01-26T07:27:38.255Z,6.8
2018-01-26T07:28:38.976Z,6.9
2018-01-26T07:29:39.704Z,7.0
2018-01-26T07:30:40.442Z,6.9
2018-01-26T07:31:41.185Z,6.9
2018-01-26T07:32:41.994Z,6.9
2018-01-26T07:33:42.787Z,6.9
2018-01-26T07:34:44.599Z,6.9
2018-01-26T07:35:45.595Z,6.9
2018-01-26T07:36:46.314Z,6.9
2018-01-26T07:37:47.056Z,6.9
2018-01-26T07:38:47.783Z,6.9
2018-01-26T07:39:48.529Z,7.0
2018-01-26T07:40:49.311Z,6.9
2018-01-26T07:41:50.078Z,6.9
2018-01-26T07:42:50.861Z,6.9
2018-01-26T07:43:51.587Z,6.9
2018-01-26T07:44:52.355Z,6.9
2018-01-26T07:45:53.086Z,7.0
2018-01-26T07:46:53.836Z,7.0
2018-01-26T07:47:54.588Z,7.0
2018-01-26T07:48:55.316Z,7.0
2018-01-26T07:49:56.125Z,7.0
2018-01-26T07:50:57.013Z,7.0
2018-01-26T07:51:57.702Z,7.0
2018-01-26T07:52:58.430Z,7.0
2018-01-26T07:53:59.153Z,7.0
2018-01-26T07:54:59.874Z,7.0
2018-01-26T07:56:00.602Z,7.0
2018-01-26T07:57:01.346Z,7.1
2018-01-26T07:58:02.096Z,7.1
2018-01-26T07:59:02.919Z,7.2
2018-01-26T08:00:03.892Z,7.1
2018-01-26T08:01:04.628Z,7.1
2018-01-26T08:02:05.355Z,7.1
2018-01-26T08:03:06.074Z,7.2
2018-01-26T08:04:06.806Z,7.0
2018-01-26T08:05:07.599Z,7.1
2018-01-26T08:06:08.334Z,7.1
2018-01-26T08:07:09.106Z,7.1
2018-01-26T08:08:09.892Z,7.1
2018-01-26T08:09:10.636Z,7.1
2018-01-26T08:10:11.374Z,7.1
2018-01-26T08:11:12.176Z,7.1
2018-01-26T08:12:12.914Z,7.1
2018-01-26T08:13:13.654Z,7.1
2018-01-26T08:14:14.885Z,7.2
2018-01-26T08:15:16.141Z,7.3
2018-01-26T08:16:18.010Z,7.2
2018-01-26T08:17:20.507Z,7.2
2018-01-26T08:18:21.517Z,7.2
2018-01-26T08:19:22.363Z,7.2
2018-01-26T08:20:24.001Z,7.3
2018-01-26T08:21:25.177Z,7.2
2018-01-26T08:22:25.865Z,7.3
2018-01-26T08:23:26.684Z,7.4
2018-01-26T08:24:27.415Z,7.4
2018-01-26T08:25:28.193Z,7.4
2018-01-26T08:26:28.928Z,7.3
2018-01-26T08:27:29.684Z,7.2
2018-01-26T08:28:30.422Z,7.2
2018-01-26T08:29:31.187Z,7.1
2018-01-26T08:30:31.999Z,7.2
2018-01-26T08:31:32.730Z,7.2
2018-01-26T08:32:33.458Z,7.2
2018-01-26T08:33:34.193Z,7.3
2018-01-26T08:34:34.927Z,7.3
2018-01-26T08:35:35.703Z,7.3
2018-01-26T08:36:36.495Z,7.4
2018-01-26T08:37:37.213Z,7.4
2018-01-26T08:38:37.946Z,7.4
2018-01-26T08:39:38.693Z,7.4
2018-01-26T08:40:39.468Z,7.4
2018-01-26T08:41:40.243Z,7.4
2018-01-26T08:42:40.976Z,7.4
2018-01-26T08:43:41.765Z,7.4
2018-01-26T08:44:42.490Z,7.4
2018-01-26T08:45:43.225Z,7.4
2018-01-26T08:46:43.955Z,7.4
2018-01-26T08:47:44.763Z,7.5
2018-01-26T08:48:45.484Z,7.4
2018-01-26T08:49:46.209Z,7.4
2018-01-26T08:50:46.958Z,7.5
2018-01-26T08:51:47.744Z,7.5
2018-01-26T08:52:48.474Z,7.6
2018-01-26T08:53:49.507Z,7.7
2018-01-26T08:54:50.245Z,7.7
2018-01-26T08:55:50.995Z,7.9
2018-01-26T08:56:51.734Z,7.9
2018-01-26T08:57:52.485Z,7.9
2018-01-26T08:58:53.291Z,7.9
2018-01-26T08:59:54.129Z,8.0
2018-01-26T09:00:54.864Z,7.9
2018-01-26T09:01:55.666Z,7.9
2018-01-26T09:02:56.389Z,7.9
2018-01-26T09:03:57.125Z,7.8
2018-01-26T09:04:57.915Z,7.8
2018-01-26T09:05:58.653Z,7.8
2018-01-26T09:06:59.388Z,7.9
2018-01-26T09:08:00.197Z,7.9
2018-01-26T09:09:00.934Z,7.8
2018-01-26T09:10:01.726Z,7.9
2018-01-26T09:11:02.472Z,7.9
2018-01-26T09:12:03.192Z,8.0
2018-01-26T09:13:03.928Z,8.1
2018-01-26T09:14:04.745Z,8.1
2018-01-26T09:15:05.517Z,8.1
2018-01-26T09:16:06.255Z,8.3
2018-01-26T09:17:06.973Z,8.2
2018-01-26T09:18:07.703Z,8.4
2018-01-26T09:19:08.437Z,8.3
2018-01-26T09:20:09.173Z,8.3
2018-01-26T09:21:09.924Z,8.3
2018-01-26T09:22:10.626Z,8.3
2018-01-26T09:23:11.384Z,8.4
2018-01-26T09:24:12.114Z,8.3
2018-01-26T09:25:12.854Z,8.4
2018-01-26T09:26:13.587Z,8.1
2018-01-26T09:27:14.326Z,8.2
2018-01-26T09:28:15.125Z,8.2
2018-01-26T09:29:15.896Z,8.1
2018-01-26T09:30:16.617Z,8.1
2018-01-26T09:31:17.341Z,8.1
2018-01-26T09:32:18.193Z,8.1
2018-01-26T09:33:18.923Z,8.3
2018-01-26T09:34:19.676Z,8.2
2018-01-26T09:35:20.446Z,8.3
2018-01-26T09:36:21.244Z,8.4
2018-01-26T09:37:22.281Z,8.4
2018-01-26T09:38:22.999Z,8.5
2018-01-26T09:39:23.784Z,8.4
2018-01-26T09:40:24.502Z,8.5
2018-01-26T09:41:25.241Z,8.6
2018-01-26T09:42:26.068Z,8.7
2018-01-26T09:43:26.826Z,8.8
2018-01-26T09:44:27.565Z,8.8
2018-01-26T09:45:28.287Z,8.9
2018-01-26T09:46:29.022Z,8.9
2018-01-26T09:47:29.764Z,8.8
2018-01-26T09:48:30.620Z,8.8
2018-01-26T09:49:31.363Z,8.7
2018-01-26T09:50:32.093Z,8.7
2018-01-26T09:51:32.825Z,8.7
2018-01-26T09:52:33.556Z,8.6
2018-01-26T09:53:34.365Z,8.4
2018-01-26T09:54:35.153Z,8.2
2018-01-26T09:55:35.874Z,8.1
2018-01-26T09:56:36.601Z,8.1
2018-01-26T09:57:37.336Z,8.0
2018-01-26T09:58:38.065Z,8.1
2018-01-26T09:59:39.092Z,8.1
2018-01-26T10:00:39.828Z,8.1
2018-01-26T10:01:40.623Z,8.2
2018-01-26T10:02:41.435Z,8.3
2018-01-26T10:03:42.166Z,8.4
2018-01-26T10:04:43.254Z,8.3
2018-01-26T10:05:44.047Z,8.3
2018-01-26T10:06:44.786Z,8.3
2018-01-26T10:07:45.513Z,8.2
2018-01-26T10:08:46.242Z,8.3
2018-01-26T10:09:46.973Z,8.2
2018-01-26T10:10:47.753Z,8.2
2018-01-26T10:11:48.504Z,8.2
2018-01-26T10:12:49.233Z,8.2
2018-01-26T10:13:49.963Z,8.3
2018-01-26T10:14:50.701Z,8.3
2018-01-26T10:15:51.483Z,8.3
2018-01-26T10:16:52.223Z,8.4
2018-01-26T10:17:52.966Z,8.5
2018-01-26T10:18:53.692Z,8.3
2018-01-26T10:19:54.435Z,8.4
2018-01-26T10:20:55.225Z,8.4
2018-01-26T10:21:55.961Z,8.5
2018-01-26T10:22:56.724Z,8.5
2018-01-26T10:23:57.494Z,8.5
2018-01-26T10:24:58.237Z,8.5
2018-01-26T10:25:59.029Z,8.6
2018-01-26T10:26:59.765Z,8.6
2018-01-26T10:28:00.504Z,8.6
2018-01-26T10:29:01.307Z,8.6
2018-01-26T10:30:02.060Z,8.6
2018-01-26T10:31:02.835Z,8.6
2018-01-26T10:32:03.545Z,8.7
2018-01-26T10:33:04.280Z,8.6
2018-01-26T10:34:05.065Z,8.6
2018-01-26T10:35:05.785Z,8.7
2018-01-26T10:36:06.814Z,8.6
2018-01-26T10:37:07.597Z,8.7
2018-01-26T10:38:08.380Z,8.6
2018-01-26T10:39:09.137Z,8.5
2018-01-26T10:40:09.922Z,8.4
2018-01-26T10:41:10.736Z,8.3
2018-01-26T10:42:11.457Z,8.4
2018-01-26T10:43:12.244Z,8.3
2018-01-26T10:44:13.043Z,8.4
2018-01-26T10:45:13.785Z,8.4
2018-01-26T10:46:14.600Z,8.4
2018-01-26T10:47:15.368Z,8.3
2018-01-26T10:48:16.163Z,8.3
2018-01-26T10:49:16.948Z,8.4
2018-01-26T10:50:17.676Z,8.5
2018-01-26T10:51:18.451Z,8.5
2018-01-26T10:52:19.187Z,8.5
2018-01-26T10:53:19.944Z,8.4
2018-01-26T10:54:20.710Z,8.4
2018-01-26T10:55:21.443Z,8.4
2018-01-26T10:56:22.193Z,8.3
2018-01-26T10:57:22.923Z,8.3
2018-01-26T10:58:23.679Z,8.3
2018-01-26T10:59:24.496Z,8.3
2018-01-26T11:00:25.267Z,8.3
2018-01-26T11:01:25.943Z,8.3
2018-01-26T11:02:26.684Z,8.3
2018-01-26T11:03:27.532Z,8.1
2018-01-26T11:04:28.272Z,8.1
2018-01-26T11:05:29.023Z,8.1
2018-01-26T11:06:29.777Z,8.1
2018-01-26T11:07:30.505Z,8.1
2018-01-26T11:08:31.234Z,8.1
2018-01-26T11:09:32.067Z,8.2
2018-01-26T11:10:32.914Z,8.3
2018-01-26T11:11:33.645Z,8.3
2018-01-26T11:12:34.374Z,8.4
2018-01-26T11:13:35.153Z,8.5
2018-01-26T11:14:35.883Z,8.6
2018-01-26T11:15:36.627Z,8.7
2018-01-26T11:16:37.385Z,8.8
2018-01-26T11:17:38.146Z,8.8
2018-01-26T11:18:38.935Z,8.9
2018-01-26T11:19:39.700Z,8.9
2018-01-26T11:20:40.443Z,9.0
2018-01-26T11:21:41.184Z,8.9
2018-01-26T11:22:41.965Z,9.0
2018-01-26T11:23:42.747Z,9.1
2018-01-26T11:24:43.480Z,9.1
2018-01-26T11:25:44.225Z,9.2
2018-01-26T11:26:44.948Z,9.3
2018-01-26T11:27:45.692Z,9.2
2018-01-26T11:28:46.511Z,9.3
2018-01-26T11:29:47.351Z,9.3
2018-01-26T11:30:48.035Z,9.3
2018-01-26T11:31:48.784Z,9.4
2018-01-26T11:32:49.524Z,9.4
2018-01-26T11:33:50.604Z,9.3
2018-01-26T11:34:52.246Z,9.5
2018-01-26T11:35:53.270Z,9.4
2018-01-26T11:36:54.059Z,9.3
2018-01-26T11:37:54.912Z,9.2
2018-01-26T11:38:55.712Z,9.3
2018-01-26T11:39:56.501Z,9.4
2018-01-26T11:40:57.214Z,9.2
2018-01-26T11:41:57.961Z,9.3
2018-01-26T11:42:58.718Z,9.0
2018-01-26T11:43:59.455Z,8.9
2018-01-26T11:45:00.210Z,9.0
2018-01-26T11:46:01.996Z,8.9
2018-01-26T11:47:02.966Z,9.0
2018-01-26T11:48:03.746Z,8.9
2018-01-26T11:49:04.495Z,8.8
2018-01-26T11:50:05.247Z,8.7
2018-01-26T11:51:05.973Z,8.6
2018-01-26T11:52:06.699Z,8.7
2018-01-26T11:53:07.475Z,8.8
2018-01-26T11:54:08.211Z,8.8
2018-01-26T11:55:09.040Z,8.9
2018-01-26T11:56:09.823Z,9.1
2018-01-26T11:57:10.554Z,9.0
2018-01-26T11:58:11.393Z,9.1
2018-01-26T11:59:12.123Z,9.3
2018-01-26T12:00:12.852Z,9.3
2018-01-26T12:01:13.590Z,9.3
2018-01-26T12:02:14.327Z,9.4
2018-01-26T12:03:15.133Z,9.4
2018-01-26T12:04:15.884Z,9.6
2018-01-26T12:05:16.668Z,9.6
2018-01-26T12:06:17.474Z,9.7
2018-01-26T12:07:18.273Z,9.6
2018-01-26T12:08:19.311Z,9.6
2018-01-26T12:09:20.062Z,9.7
2018-01-26T12:10:20.825Z,9.6
2018-01-26T12:11:21.566Z,9.7
2018-01-26T12:12:22.326Z,9.7
2018-01-26T12:13:23.124Z,9.7
2018-01-26T12:14:23.856Z,9.7
2018-01-26T12:15:24.585Z,9.8
2018-01-26T12:16:25.322Z,9.9
2018-01-26T12:17:26.055Z,9.8
2018-01-26T12:18:26.953Z,9.8
2018-01-26T12:19:27.727Z,9.8
2018-01-26T12:20:28.502Z,9.7
2018-01-26T12:21:29.236Z,9.8
2018-01-26T12:22:30.041Z,9.7
2018-01-26T12:23:31.157Z,9.9
2018-01-26T12:24:31.942Z,9.9
2018-01-26T12:25:32.689Z,9.8
2018-01-26T12:26:33.477Z,10.0
2018-01-26T12:27:34.203Z,9.9
2018-01-26T12:28:35.006Z,10.0
2018-01-26T12:29:36.018Z,10.0
2018-01-26T12:30:36.954Z,10.2
2018-01-26T12:31:38.747Z,10.1
2018-01-26T12:32:39.763Z,10.1
2018-01-26T12:33:40.920Z,10.1
2018-01-26T12:34:41.901Z,9.9
2018-01-26T12:35:42.718Z,9.9
2018-01-26T12:36:43.492Z,9.9
2018-01-26T12:37:44.284Z,9.9
2018-01-26T12:38:45.006Z,9.8
2018-01-26T12:39:46.875Z,9.9
2018-01-26T12:40:47.974Z,9.9
2018-01-26T12:41:48.795Z,10.0
2018-01-26T12:42:49.575Z,9.8
2018-01-26T12:43:51.978Z,9.8
2018-01-26T12:44:52.879Z,9.8
2018-01-26T12:45:53.655Z,9.7
2018-01-26T12:46:54.413Z,9.6
2018-01-26T12:47:55.167Z,9.6
2018-01-26T12:48:56.397Z,9.6
2018-01-26T12:49:57.378Z,9.5
2018-01-26T12:50:58.140Z,9.5
2018-01-26T12:51:58.871Z,9.4
2018-01-26T12:52:59.608Z,9.2
2018-01-26T12:54:00.333Z,9.2
2018-01-26T12:55:01.080Z,9.3
2018-01-26T12:56:01.876Z,9.2
2018-01-26T12:57:02.752Z,9.3
2018-01-26T12:58:03.544Z,9.3
2018-01-26T12:59:04.306Z,9.4
2018-01-26T13:00:05.031Z,9.4
2018-01-26T13:01:05.768Z,9.5
2018-01-26T13:02:06.821Z,9.5
2018-01-26T13:03:07.613Z,9.5
2018-01-26T13:04:08.354Z,9.5
2018-01-26T13:05:09.172Z,9.5
2018-01-26T13:06:09.916Z,9.5
2018-01-26T13:07:10.643Z,9.5
2018-01-26T13:08:11.413Z,9.4
2018-01-26T13:09:12.120Z,9.4
2018-01-26T13:10:12.903Z,9.4
2018-01-26T13:11:13.652Z,9.4
2018-01-26T13:12:14.383Z,9.5
2018-01-26T13:13:15.149Z,9.4
2018-01-26T13:14:15.875Z,9.4
2018-01-26T13:15:16.633Z,9.4
2018-01-26T13:16:17.352Z,9.3
2018-01-26T13:17:18.144Z,9.4
2018-01-26T13:18:18.892Z,9.2
2018-01-26T13:19:19.662Z,9.2
2018-01-26T13:20:20.380Z,9.2
2018-01-26T13:21:21.114Z,9.1
2018-01-26T13:22:21.906Z,9.2
2018-01-26T13:23:22.638Z,9.2
2018-01-26T13:24:23.457Z,9.2
2018-01-26T13:25:24.212Z,9.3
2018-01-26T13:26:24.997Z,9.4
2018-01-26T13:27:25.830Z,9.4
2018-01-26T13:28:26.559Z,9.4
2018-01-26T13:29:27.376Z,9.6
2018-01-26T13:30:28.257Z,9.6
2018-01-26T13:31:29.034Z,9.6
2018-01-26T13:32:29.870Z,9.7
2018-01-26T13:33:30.664Z,9.6
2018-01-26T13:34:31.407Z,9.5
2018-01-26T13:35:32.136Z,9.4
2018-01-26T13:36:32.875Z,9.3
2018-01-26T13:37:33.679Z,9.3
2018-01-26T13:38:34.459Z,9.3
2018-01-26T13:39:35.153Z,9.2
2018-01-26T13:40:35.886Z,9.2
2018-01-26T13:41:36.626Z,9.2
2018-01-26T13:42:37.361Z,9.2
2018-01-26T13:43:38.130Z,9.3
2018-01-26T13:44:39.032Z,9.2
2018-01-26T13:45:39.560Z,9.2
2018-01-26T13:46:40.305Z,9.2
2018-01-26T13:47:41.043Z,9.1
2018-01-26T13:48:42.396Z,9.1
2018-01-26T13:49:43.127Z,9.0
2018-01-26T13:50:43.938Z,9.1
2018-01-26T13:51:44.746Z,9.1
2018-01-26T13:52:45.486Z,9.1
2018-01-26T13:53:46.285Z,9.1
2018-01-26T13:54:47.096Z,9.0
2018-01-26T13:55:47.826Z,9.2
2018-01-26T13:56:48.653Z,9.2